Time;durP1;ratioP1;P1;durP2;ratioP2;P2;SDS_P1;SDS_P2;PMS_P1;PMS_P2;Temp;Humidity;BMP_temperature;BMP_pressure;BME280_temperature;BME280_humidity;BME280_pressure;Samples;Min_cycle;Max_cycle;Signal;HPM_P1;HPM_P2
2023/02/25 00:01:23;;;;;;;16.20;10.37;;;7.40;99.90;;;;;;5039206;28;20042;-83
2023/02/25 00:03:53;;;;;;;16.23;10.20;;;7.40;99.90;;;;;;5048673;28;20025;-83
2023/02/25 00:06:20;;;;;;;15.60;8.87;;;7.30;99.90;;;;;;5016527;28;20522;-83
2023/02/25 00:08:47;;;;;;;18.43;11.53;;;7.30;99.90;;;;;;5010563;28;20042;-83
2023/02/25 00:11:13;;;;;;;18.90;11.33;;;7.30;99.90;;;;;;5028306;28;20034;-83
2023/02/25 00:13:40;;;;;;;20.23;11.80;;;7.40;99.90;;;;;;5013212;28;20038;-83
2023/02/25 00:16:06;;;;;;;17.73;12.87;;;7.40;99.90;;;;;;5005609;28;20034;-83
2023/02/25 00:18:32;;;;;;;20.50;12.37;;;7.50;99.90;;;;;;5025014;28;20034;-83
2023/02/25 00:20:59;;;;;;;17.53;11.63;;;7.50;99.90;;;;;;5031132;28;20046;-83
2023/02/25 00:23:25;;;;;;;19.03;12.77;;;7.50;99.90;;;;;;5011739;28;20037;-83
2023/02/25 00:26:02;;;;;;;19.83;10.50;;;7.50;99.90;;;;;;5024098;28;20042;-83
2023/02/25 00:28:28;;;;;;;20.20;11.43;;;7.50;99.90;;;;;;5044414;28;20026;-83
2023/02/25 00:30:54;;;;;;;20.03;12.50;;;7.40;99.90;;;;;;5020409;28;20064;-83
2023/02/25 00:33:20;;;;;;;15.13;10.63;;;7.40;99.90;;;;;;5028675;28;20199;-83
2023/02/25 00:35:48;;;;;;;17.20;11.67;;;7.50;99.90;;;;;;5011103;28;20046;-83
2023/02/25 00:38:15;;;;;;;19.10;11.93;;;7.50;99.90;;;;;;5043791;28;20026;-83
2023/02/25 00:40:41;;;;;;;20.10;12.20;;;7.50;99.90;;;;;;5028085;28;20360;-82
2023/02/25 00:43:07;;;;;;;17.23;10.77;;;7.50;99.90;;;;;;5028076;28;20037;-83
2023/02/25 00:45:33;;;;;;;21.67;12.10;;;7.60;99.90;;;;;;5010294;28;20049;-83
2023/02/25 00:47:59;;;;;;;18.75;12.93;;;7.60;99.90;;;;;;5044473;28;20376;-83
2023/02/25 00:50:26;;;;;;;21.27;13.07;;;7.50;99.90;;;;;;5043911;28;20537;-83
2023/02/25 00:52:52;;;;;;;14.45;12.13;;;7.60;99.90;;;;;;5027246;28;20034;-83
2023/02/25 00:55:18;;;;;;;18.25;12.95;;;7.50;99.90;;;;;;5038724;28;20379;-83
2023/02/25 00:57:44;;;;;;;22.70;12.90;;;7.60;99.90;;;;;;5008139;28;20045;-83
2023/02/25 01:00:15;;;;;;;18.30;12.20;;;7.60;99.90;;;;;;5034162;28;20466;-83
2023/02/25 01:02:44;;;;;;;21.08;12.75;;;7.60;99.90;;;;;;5031282;28;20028;-83
2023/02/25 01:05:13;;;;;;;17.60;11.83;;;7.50;99.90;;;;;;5026518;28;20038;-83
2023/02/25 01:07:39;;;;;;;20.70;12.83;;;7.40;99.90;;;;;;5027218;28;20030;-83
2023/02/25 01:10:06;;;;;;;17.77;13.53;;;7.40;99.90;;;;;;5026348;28;20533;-83
2023/02/25 01:12:32;;;;;;;18.77;13.40;;;7.50;99.90;;;;;;5027718;28;20029;-82
2023/02/25 01:14:58;;;;;;;24.30;13.40;;;7.40;99.90;;;;;;5002088;28;20029;-83
2023/02/25 01:17:24;;;;;;;15.97;11.17;;;7.40;99.90;;;;;;5043558;28;20041;-83
2023/02/25 01:19:50;;;;;;;25.17;12.67;;;7.30;99.90;;;;;;5043971;28;20038;-83
2023/02/25 01:22:16;;;;;;;18.43;12.50;;;7.30;99.90;;;;;;5026742;28;20046;-82
2023/02/25 01:24:43;;;;;;;18.87;11.97;;;7.30;99.90;;;;;;5008252;28;20034;-83
2023/02/25 01:27:09;;;;;;;16.50;10.80;;;7.20;99.90;;;;;;5010825;28;20038;-83
2023/02/25 01:29:39;;;;;;;18.43;12.80;;;7.20;99.90;;;;;;5010110;28;20055;-82
2023/02/25 01:32:08;;;;;;;15.93;9.77;;;7.30;99.90;;;;;;5012046;28;20414;-83
2023/02/25 01:34:34;;;;;;;19.90;10.90;;;7.20;99.90;;;;;;5026571;28;20034;-82
2023/02/25 01:37:00;;;;;;;16.07;11.23;;;7.20;99.90;;;;;;5043668;28;20041;-83
2023/02/25 01:39:27;;;;;;;15.13;9.93;;;7.20;99.90;;;;;;4998396;28;20070;-82
2023/02/25 01:41:55;;;;;;;12.47;9.47;;;7.20;99.90;;;;;;4991501;28;20045;-83
2023/02/25 01:44:28;;;;;;;20.10;10.70;;;7.30;99.90;;;;;;5027024;28;20042;-83
2023/02/25 01:46:55;;;;;;;17.73;10.87;;;7.20;99.90;;;;;;5006734;28;20046;-83
2023/02/25 01:49:30;;;;;;;16.53;10.10;;;7.10;99.90;;;;;;5024171;28;20476;-82
2023/02/25 01:52:19;;;;;;;17.73;11.03;;;7.10;99.90;;;;;;5022231;28;20037;-83
2023/02/25 01:54:47;;;;;;;18.33;10.70;;;7.10;99.90;;;;;;4992789;28;20473;-82
2023/02/25 01:57:14;;;;;;;18.37;10.87;;;7.00;99.90;;;;;;5006967;28;20051;-82
2023/02/25 01:59:40;;;;;;;19.50;10.37;;;7.10;99.90;;;;;;5019026;28;20498;-83
2023/02/25 02:02:14;;;;;;;17.17;11.10;;;7.00;99.90;;;;;;5044987;28;20053;-82
2023/02/25 02:04:40;;;;;;;15.20;11.20;;;7.10;99.90;;;;;;5027624;28;20037;-82
2023/02/25 02:07:06;;;;;;;16.40;10.67;;;7.10;99.90;;;;;;5030485;28;20057;-82
2023/02/25 02:09:32;;;;;;;13.63;9.97;;;7.10;99.90;;;;;;5015524;28;20034;-82
2023/02/25 02:12:00;;;;;;;16.77;11.37;;;7.10;99.90;;;;;;5047290;28;20034;-82
2023/02/25 02:14:29;;;;;;;14.30;11.03;;;7.10;99.90;;;;;;4982983;28;20411;-82
2023/02/25 02:17:29;;;;;;;15.67;10.90;;;7.10;99.90;;;;;;5009768;28;20042;-83
2023/02/25 02:20:13;;;;;;;10.10;8.63;;;7.10;99.90;;;;;;5005859;28;20388;-82
2023/02/25 02:22:48;;;;;;;13.73;9.60;;;7.10;99.90;;;;;;5012124;28;20046;-82
2023/02/25 02:25:28;;;;;;;13.17;9.67;;;7.10;99.90;;;;;;5012844;28;20125;-82
2023/02/25 02:28:13;;;;;;;14.17;9.70;;;7.00;99.90;;;;;;4995188;28;20045;-82
2023/02/25 02:30:48;;;;;;;12.33;10.97;;;7.00;99.90;;;;;;5011125;28;20033;-82
2023/02/25 02:33:45;;;;;;;10.63;8.37;;;7.00;99.90;;;;;;4992516;28;20164;-83
2023/02/25 02:36:18;;;;;;;10.73;9.23;;;7.00;99.90;;;;;;5026459;28;20141;-82
2023/02/25 02:39:16;;;;;;;17.47;10.97;;;7.00;99.90;;;;;;4979854;28;20049;-82
2023/02/25 02:41:56;;;;;;;11.00;9.80;;;7.00;99.90;;;;;;5009754;28;20047;-82
2023/02/25 02:44:27;;;;;;;13.85;11.15;;;6.90;99.90;;;;;;4978247;28;20373;-82
2023/02/25 02:47:08;;;;;;;14.35;9.70;;;7.00;99.90;;;;;;4992515;28;20042;-82
2023/02/25 02:49:42;;;;;;;17.17;10.48;;;7.00;99.90;;;;;;5007470;28;20045;-83
2023/02/25 02:52:14;;;;;;;8.90;6.03;;;7.00;99.90;;;;;;4992545;28;20046;-82
2023/02/25 02:54:40;;;;;;;11.83;8.10;;;7.00;99.90;;;;;;5008657;28;20030;-82
2023/02/25 02:57:07;;;;;;;12.67;9.10;;;6.90;99.90;;;;;;5018289;28;20057;-82
2023/02/25 02:59:41;;;;;;;10.97;8.00;;;6.90;99.90;;;;;;5018236;28;20030;-82
2023/02/25 03:02:22;;;;;;;16.00;9.60;;;6.90;99.90;;;;;;5029120;28;20041;-82
2023/02/25 03:04:50;;;;;;;12.65;8.48;;;6.90;99.90;;;;;;5012422;28;20030;-82
2023/02/25 03:07:16;;;;;;;12.93;9.23;;;7.00;99.90;;;;;;5034485;28;20045;-82
2023/02/25 03:09:44;;;;;;;14.43;10.80;;;6.90;99.90;;;;;;5000577;28;20042;-82
2023/02/25 03:12:10;;;;;;;18.20;10.70;;;6.90;99.90;;;;;;5024956;28;20484;-82
2023/02/25 03:14:36;;;;;;;13.03;9.97;;;6.90;99.90;;;;;;5012874;28;20046;-82
2023/02/25 03:17:22;;;;;;;11.17;9.50;;;7.00;99.90;;;;;;5006724;28;20050;-82
2023/02/25 03:20:16;;;;;;;12.87;10.63;;;7.00;99.90;;;;;;5029093;28;20040;-82
2023/02/25 03:22:45;;;;;;;16.70;10.63;;;6.90;99.90;;;;;;5009479;28;20407;-82
2023/02/25 03:25:31;;;;;;;15.10;10.13;;;6.90;99.90;;;;;;5007277;28;20034;-82
2023/02/25 03:28:17;;;;;;;15.90;9.67;;;7.00;99.90;;;;;;5028281;28;20470;-83
2023/02/25 03:30:47;;;;;;;18.70;10.27;;;6.90;99.90;;;;;;5025884;28;20042;-82
2023/02/25 03:33:28;;;;;;;14.87;11.47;;;6.90;99.90;;;;;;5026289;28;20403;-82
2023/02/25 03:35:55;;;;;;;14.77;11.00;;;7.00;99.90;;;;;;5026623;28;20034;-82
2023/02/25 03:38:24;;;;;;;17.17;10.50;;;7.00;99.90;;;;;;4996981;28;20046;-82
2023/02/25 03:40:50;;;;;;;12.77;8.93;;;7.00;99.90;;;;;;5020634;28;20050;-82
2023/02/25 03:43:25;;;;;;;18.23;11.60;;;7.00;99.90;;;;;;5028232;28;20045;-82
2023/02/25 03:45:51;;;;;;;12.43;9.37;;;7.00;99.90;;;;;;5014168;28;20045;-82
2023/02/25 03:48:18;;;;;;;14.90;11.67;;;7.00;99.90;;;;;;5020150;28;20061;-82
2023/02/25 03:50:47;;;;;;;19.10;11.27;;;7.00;99.90;;;;;;5028899;28;20030;-82
2023/02/25 03:53:13;;;;;;;14.43;11.07;;;7.00;99.90;;;;;;5011469;28;20046;-82
2023/02/25 03:55:39;;;;;;;16.07;11.67;;;7.00;99.90;;;;;;5044262;28;20486;-82
2023/02/25 03:58:06;;;;;;;20.47;11.60;;;7.00;99.90;;;;;;5028692;28;20029;-82
2023/02/25 04:00:33;;;;;;;15.17;11.33;;;7.10;99.90;;;;;;5031793;28;20041;-82
2023/02/25 04:02:59;;;;;;;20.10;11.47;;;7.10;99.90;;;;;;5022671;28;20041;-82
2023/02/25 04:05:26;;;;;;;16.53;11.80;;;7.10;99.90;;;;;;5045215;28;20041;-82
2023/02/25 04:07:56;;;;;;;18.87;10.30;;;7.10;99.90;;;;;;5027315;28;20050;-82
2023/02/25 04:10:22;;;;;;;16.10;10.52;;;7.00;99.90;;;;;;5027420;28;20041;-82
2023/02/25 04:12:52;;;;;;;15.77;10.33;;;7.00;99.90;;;;;;5044163;28;20048;-82
2023/02/25 04:15:18;;;;;;;14.17;10.10;;;6.90;99.90;;;;;;5027463;28;20030;-82
2023/02/25 04:17:44;;;;;;;12.70;9.07;;;7.00;99.90;;;;;;5024955;28;20037;-82
2023/02/25 04:20:12;;;;;;;15.47;10.63;;;7.00;99.90;;;;;;4995155;28;20037;-82
2023/02/25 04:22:38;;;;;;;16.13;11.47;;;6.90;99.90;;;;;;5022385;28;20042;-82
2023/02/25 04:25:05;;;;;;;16.13;12.27;;;7.00;99.90;;;;;;5043675;28;20030;-82
2023/02/25 04:27:31;;;;;;;14.90;10.97;;;7.00;99.90;;;;;;5026781;28;20046;-83
2023/02/25 04:29:57;;;;;;;16.47;9.83;;;7.00;99.90;;;;;;5011683;28;20018;-82
2023/02/25 04:32:23;;;;;;;17.57;10.87;;;7.00;99.90;;;;;;5006740;28;20380;-82
2023/02/25 04:34:50;;;;;;;15.23;9.50;;;7.00;99.90;;;;;;4972781;28;20031;-82
2023/02/25 04:37:16;;;;;;;18.53;10.40;;;7.00;99.90;;;;;;4972735;28;20468;-82
2023/02/25 04:39:42;;;;;;;16.13;11.30;;;7.00;99.90;;;;;;4972060;28;20023;-82
2023/02/25 04:42:08;;;;;;;15.03;10.33;;;6.90;99.90;;;;;;4988570;28;20035;-82
2023/02/25 04:44:34;;;;;;;13.73;10.50;;;6.90;99.90;;;;;;4974504;28;20042;-82
2023/02/25 04:47:00;;;;;;;15.80;10.03;;;7.00;99.90;;;;;;5008191;28;20495;-82
2023/02/25 04:49:27;;;;;;;15.97;10.17;;;7.00;99.90;;;;;;5042016;28;20033;-82
2023/02/25 04:51:53;;;;;;;15.90;10.90;;;6.90;99.90;;;;;;4993025;28;20030;-82
2023/02/25 04:54:19;;;;;;;14.97;10.73;;;7.00;99.90;;;;;;5005643;28;20038;-82
2023/02/25 04:56:46;;;;;;;13.17;8.77;;;7.00;99.90;;;;;;5010805;28;20040;-80
2023/02/25 04:59:12;;;;;;;18.17;10.87;;;6.90;99.90;;;;;;4998618;28;20494;-80
2023/02/25 05:01:38;;;;;;;15.83;10.87;;;6.90;99.90;;;;;;5029862;28;20053;-79
2023/02/25 05:04:04;;;;;;;15.07;10.93;;;6.90;99.90;;;;;;5045091;28;20034;-80
2023/02/25 05:06:31;;;;;;;16.67;11.90;;;7.00;99.90;;;;;;5046186;28;20047;-78
2023/02/25 05:08:57;;;;;;;17.43;12.70;;;7.00;99.90;;;;;;5018206;28;20028;-79
2023/02/25 05:11:24;;;;;;;18.07;11.90;;;7.00;99.90;;;;;;5015117;28;20379;-79
2023/02/25 05:13:51;;;;;;;18.80;13.03;;;6.90;99.90;;;;;;5011337;28;20034;-79
2023/02/25 05:16:17;;;;;;;15.23;11.90;;;6.90;99.90;;;;;;4975193;28;20392;-79
2023/02/25 05:18:44;;;;;;;14.50;11.63;;;6.90;99.90;;;;;;5054570;28;20026;-79
2023/02/25 05:21:12;;;;;;;16.03;12.70;;;6.90;99.90;;;;;;5022208;28;20042;-79
2023/02/25 05:23:39;;;;;;;17.93;11.67;;;6.90;99.90;;;;;;5043526;28;20033;-79
2023/02/25 05:26:05;;;;;;;15.23;9.63;;;6.90;99.90;;;;;;5029452;28;20031;-79
2023/02/25 05:28:31;;;;;;;21.57;12.20;;;6.90;99.90;;;;;;5007722;28;20034;-79
2023/02/25 05:30:57;;;;;;;21.03;11.60;;;6.90;99.90;;;;;;4990974;28;20042;-79
2023/02/25 05:33:24;;;;;;;33.43;13.13;;;6.80;99.90;;;;;;5000597;28;20041;-79
2023/02/25 05:35:50;;;;;;;18.67;12.47;;;6.90;99.90;;;;;;5011174;28;20034;-79
2023/02/25 05:38:16;;;;;;;19.80;9.70;;;6.80;99.90;;;;;;5011774;28;20026;-78
2023/02/25 05:40:42;;;;;;;18.27;11.57;;;6.80;99.90;;;;;;4997519;28;20034;-79
2023/02/25 05:43:08;;;;;;;17.97;11.37;;;6.90;99.90;;;;;;4997729;28;20044;-79
2023/02/25 05:45:34;;;;;;;17.83;11.10;;;6.90;99.90;;;;;;4981668;28;20519;-79
2023/02/25 05:48:00;;;;;;;21.17;11.43;;;6.90;99.90;;;;;;4997570;28;20045;-79
2023/02/25 05:50:27;;;;;;;24.77;12.33;;;6.90;99.90;;;;;;5046374;28;20038;-79
2023/02/25 05:52:53;;;;;;;21.77;13.33;;;6.90;99.90;;;;;;5046630;28;20022;-80
2023/02/25 05:55:20;;;;;;;20.02;13.32;;;7.00;99.90;;;;;;5047456;28;20026;-79
2023/02/25 05:57:46;;;;;;;19.20;12.50;;;7.00;99.90;;;;;;5047229;28;20029;-79
2023/02/25 06:00:13;;;;;;;7.93;5.57;;;6.90;99.90;;;;;;5030658;28;20022;-79
2023/02/25 06:02:43;;;;;;;18.43;12.90;;;6.90;99.90;;;;;;5029198;28;20510;-79
2023/02/25 06:05:09;;;;;;;13.47;9.87;;;6.90;99.90;;;;;;5043235;28;20375;-79
2023/02/25 06:07:35;;;;;;;22.83;12.40;;;6.90;99.90;;;;;;5029783;28;20034;-79
2023/02/25 06:10:01;;;;;;;17.20;12.70;;;6.90;99.90;;;;;;5050393;28;20026;-79
2023/02/25 06:12:28;;;;;;;13.20;9.40;;;6.90;99.90;;;;;;5024543;28;20034;-81
2023/02/25 06:14:54;;;;;;;14.67;9.27;;;6.90;99.90;;;;;;4995104;28;20032;-81
2023/02/25 06:17:20;;;;;;;17.30;10.93;;;6.90;99.90;;;;;;5014671;28;20479;-80
2023/02/25 06:19:46;;;;;;;13.07;7.77;;;6.90;99.90;;;;;;5010532;28;20049;-81
2023/02/25 06:22:12;;;;;;;17.70;11.47;;;6.90;99.90;;;;;;5015669;28;20053;-81
2023/02/25 06:24:39;;;;;;;20.47;11.87;;;6.90;99.90;;;;;;5010362;28;20026;-81
2023/02/25 06:27:05;;;;;;;18.33;10.23;;;7.00;99.90;;;;;;5026175;28;20469;-80
2023/02/25 06:29:31;;;;;;;25.53;13.60;;;7.00;99.90;;;;;;5027074;28;20030;-80
2023/02/25 06:31:57;;;;;;;22.97;12.43;;;6.90;99.90;;;;;;5026664;28;20030;-81
2023/02/25 06:34:24;;;;;;;15.97;9.37;;;7.00;99.90;;;;;;5026563;28;20034;-80
2023/02/25 06:36:50;;;;;;;15.70;10.20;;;6.90;99.90;;;;;;4995449;28;20041;-81
2023/02/25 06:39:16;;;;;;;21.40;10.70;;;6.90;99.90;;;;;;4995603;28;20046;-80
2023/02/25 06:41:42;;;;;;;16.93;12.70;;;6.90;99.90;;;;;;4994806;28;20045;-80
2023/02/25 06:44:08;;;;;;;16.80;11.50;;;6.90;99.90;;;;;;4995430;28;20387;-80
2023/02/25 06:46:34;;;;;;;14.97;10.33;;;6.80;99.90;;;;;;4994846;28;20053;-81
2023/02/25 06:49:00;;;;;;;22.17;12.30;;;6.80;99.90;;;;;;5041114;28;20387;-80
2023/02/25 06:51:26;;;;;;;20.07;11.27;;;6.90;99.90;;;;;;5012937;28;20034;-80
2023/02/25 06:53:52;;;;;;;12.63;6.77;;;6.80;99.90;;;;;;5014597;28;20034;-80
2023/02/25 06:56:19;;;;;;;19.10;13.23;;;6.80;99.90;;;;;;5013255;28;20353;-81
2023/02/25 06:58:45;;;;;;;14.83;9.17;;;6.80;99.90;;;;;;5013603;28;20411;-80
2023/02/25 07:01:12;;;;;;;17.27;10.83;;;6.80;99.90;;;;;;4992600;28;20049;-80
2023/02/25 07:03:39;;;;;;;19.70;12.43;;;6.80;99.90;;;;;;5010428;28;20037;-82
2023/02/25 07:06:05;;;;;;;22.43;13.60;;;6.90;99.90;;;;;;5009848;28;20496;-81
2023/02/25 07:08:31;;;;;;;18.57;10.67;;;6.90;99.90;;;;;;5014028;28;20406;-81
2023/02/25 07:11:16;;;;;;;20.40;13.97;;;6.90;99.90;;;;;;5032306;28;20036;-81
2023/02/25 07:13:43;;;;;;;20.37;11.43;;;6.90;99.90;;;;;;5016302;28;20482;-81
2023/02/25 07:16:10;;;;;;;12.77;8.57;;;6.90;99.90;;;;;;5012087;28;20042;-81
2023/02/25 07:18:36;;;;;;;17.77;13.23;;;6.80;99.90;;;;;;5044916;28;20041;-80
2023/02/25 07:21:03;;;;;;;22.17;12.93;;;6.90;99.90;;;;;;5013890;28;20479;-81
2023/02/25 07:23:29;;;;;;;21.80;14.70;;;6.80;99.90;;;;;;5014177;28;20037;-81
2023/02/25 07:25:55;;;;;;;23.70;13.90;;;6.80;99.90;;;;;;5013822;28;20034;-81
2023/02/25 07:28:21;;;;;;;26.37;15.33;;;6.80;99.90;;;;;;5029281;28;20046;-81
2023/02/25 07:30:47;;;;;;;21.83;14.23;;;6.80;99.90;;;;;;5027692;28;20042;-81
2023/02/25 07:33:13;;;;;;;14.93;9.83;;;6.90;99.90;;;;;;5029419;28;20053;-81
2023/02/25 07:35:39;;;;;;;23.03;13.70;;;6.80;99.90;;;;;;4992998;28;20042;-80
2023/02/25 07:38:06;;;;;;;19.90;12.47;;;6.80;99.90;;;;;;5009570;28;20039;-81
2023/02/25 07:40:32;;;;;;;17.67;8.30;;;6.80;99.90;;;;;;5008818;28;20023;-81
2023/02/25 07:42:58;;;;;;;19.73;10.57;;;6.80;99.90;;;;;;4992390;28;20053;-81
2023/02/25 07:45:24;;;;;;;16.83;9.57;;;6.80;99.90;;;;;;4992392;28;20037;-81
2023/02/25 07:47:52;;;;;;;17.17;10.83;;;6.80;99.90;;;;;;5011100;28;20446;-80
2023/02/25 07:50:18;;;;;;;14.13;8.10;;;6.80;99.90;;;;;;5025000;28;20041;-80
2023/02/25 07:52:44;;;;;;;19.50;9.80;;;6.80;99.90;;;;;;5013455;28;20109;-80
2023/02/25 07:55:10;;;;;;;17.07;9.70;;;6.80;99.90;;;;;;5019974;28;20034;-81
2023/02/25 07:57:36;;;;;;;15.73;10.17;;;6.90;99.90;;;;;;5025435;28;20464;-79
2023/02/25 08:00:06;;;;;;;18.23;8.83;;;6.90;99.90;;;;;;4994424;28;20042;-80
2023/02/25 08:02:32;;;;;;;19.17;10.77;;;6.90;99.90;;;;;;5024274;28;20034;-80
2023/02/25 08:04:59;;;;;;;11.50;7.30;;;6.90;99.90;;;;;;4992917;28;20030;-80
2023/02/25 08:07:25;;;;;;;18.33;8.90;;;6.90;99.90;;;;;;4990476;28;20049;-81
2023/02/25 08:09:51;;;;;;;20.67;10.10;;;6.90;99.90;;;;;;5020003;28;20093;-80
2023/02/25 08:12:17;;;;;;;17.33;9.97;;;6.90;99.90;;;;;;4992474;28;20030;-81
2023/02/25 08:14:44;;;;;;;15.40;10.27;;;6.90;99.90;;;;;;4993733;28;20030;-81
2023/02/25 08:17:11;;;;;;;19.63;11.10;;;6.90;99.90;;;;;;4992557;28;20045;-81
2023/02/25 08:19:38;;;;;;;18.73;10.40;;;7.00;99.90;;;;;;4993721;28;20033;-81
2023/02/25 08:22:04;;;;;;;19.87;11.50;;;7.00;99.90;;;;;;4993921;28;20046;-81
2023/02/25 08:24:31;;;;;;;15.90;9.67;;;7.00;99.90;;;;;;5024609;28;20471;-80
2023/02/25 08:26:57;;;;;;;6.20;5.20;;;7.00;99.90;;;;;;5024183;28;20026;-80
2023/02/25 08:29:23;;;;;;;17.17;10.10;;;7.00;99.90;;;;;;4992526;28;20030;-80
2023/02/25 08:31:50;;;;;;;16.07;10.70;;;6.90;99.90;;;;;;4991463;28;20031;-83
2023/02/25 08:34:17;;;;;;;20.57;9.77;;;7.00;99.90;;;;;;5008445;28;20033;-82
2023/02/25 08:36:43;;;;;;;17.10;10.07;;;7.00;99.90;;;;;;5009804;28;20026;-82
2023/02/25 08:39:09;;;;;;;18.97;10.17;;;7.00;99.90;;;;;;5009495;28;20117;-80
2023/02/25 08:41:35;;;;;;;13.07;8.70;;;7.10;99.90;;;;;;5047493;28;20045;-80
2023/02/25 08:44:02;;;;;;;17.20;9.97;;;7.10;99.90;;;;;;5011384;28;20383;-79
2023/02/25 08:46:29;;;;;;;12.03;8.03;;;7.10;99.90;;;;;;4981499;28;20031;-80
2023/02/25 08:48:55;;;;;;;14.93;7.70;;;7.10;99.90;;;;;;5016419;28;20041;-80
2023/02/25 08:51:23;;;;;;;14.73;7.57;;;7.10;99.90;;;;;;5025754;28;20483;-80
2023/02/25 08:53:49;;;;;;;15.40;9.20;;;7.00;99.90;;;;;;5024083;28;20038;-80
2023/02/25 08:56:15;;;;;;;9.93;7.03;;;7.10;99.90;;;;;;5010530;28;20038;-81
2023/02/25 08:58:41;;;;;;;12.13;7.90;;;7.10;99.90;;;;;;4995354;28;20044;-79
2023/02/25 09:01:11;;;;;;;11.90;6.90;;;7.10;99.90;;;;;;5024576;28;20045;-80
2023/02/25 09:03:39;;;;;;;13.70;7.93;;;7.30;99.90;;;;;;4982758;28;20407;-80
2023/02/25 09:06:05;;;;;;;9.13;6.90;;;7.30;99.90;;;;;;5025005;28;20041;-80
2023/02/25 09:08:31;;;;;;;14.33;8.43;;;7.30;99.90;;;;;;5006244;28;20042;-80
2023/02/25 09:10:57;;;;;;;13.43;7.27;;;7.30;99.90;;;;;;4994884;28;20101;-80
2023/02/25 09:13:24;;;;;;;13.07;7.00;;;7.30;99.90;;;;;;5026147;28;20057;-79
2023/02/25 09:15:56;;;;;;;13.10;7.70;;;7.30;99.90;;;;;;5013377;28;20037;-79
2023/02/25 09:18:23;;;;;;;12.93;7.20;;;7.40;99.90;;;;;;5003950;28;20030;-80
2023/02/25 09:20:49;;;;;;;11.20;7.33;;;7.40;99.90;;;;;;5011197;28;20042;-81
2023/02/25 09:23:15;;;;;;;9.37;6.87;;;7.40;99.90;;;;;;5029229;28;20407;-81
2023/02/25 09:25:43;;;;;;;10.70;7.03;;;7.50;99.90;;;;;;5013915;28;20038;-81
2023/02/25 09:28:10;;;;;;;12.67;7.30;;;7.50;99.90;;;;;;5028677;28;20038;-80
2023/02/25 09:30:36;;;;;;;10.27;6.27;;;7.40;99.90;;;;;;4995564;28;20039;-79
2023/02/25 09:33:02;;;;;;;10.70;6.67;;;7.50;99.90;;;;;;5010934;28;20043;-81
2023/02/25 09:35:28;;;;;;;9.63;6.60;;;7.50;99.90;;;;;;5028283;28;20045;-80
2023/02/25 09:37:55;;;;;;;14.57;6.20;;;7.50;99.90;;;;;;4979109;28;20507;-84
2023/02/25 09:40:23;;;;;;;11.27;7.30;;;7.60;99.90;;;;;;5012444;28;20034;-83
2023/02/25 09:42:56;;;;;;;14.90;7.80;;;7.60;99.90;;;;;;5011298;28;20026;-80
2023/02/25 09:45:23;;;;;;;10.10;5.90;;;7.60;99.90;;;;;;5026113;28;20436;-90
2023/02/25 09:47:56;;;;;;;9.23;6.87;;;7.60;99.90;;;;;;5011396;28;20054;-88
2023/02/25 09:50:34;;;;;;;6.83;5.53;;;7.60;99.90;;;;;;5042344;28;20026;-87
2023/02/25 09:53:06;;;;;;;11.83;6.17;;;7.60;99.90;;;;;;5030146;28;20030;-87
2023/02/25 09:55:36;;;;;;;10.40;5.47;;;7.50;99.90;;;;;;5015970;28;20030;-88
2023/02/25 09:58:13;;;;;;;9.63;6.43;;;7.60;99.90;;;;;;5042231;28;20030;-83
2023/02/25 10:00:43;;;;;;;5.97;5.40;;;7.70;99.90;;;;;;5005607;28;20491;-88
2023/02/25 10:03:12;;;;;;;7.93;6.10;;;7.70;99.90;;;;;;4994801;28;20034;-87
2023/02/25 10:05:43;;;;;;;11.10;6.63;;;7.70;99.90;;;;;;5013089;28;20030;-88
2023/02/25 10:08:38;;;;;;;6.88;5.18;;;7.80;99.90;;;;;;5000546;28;20061;-91
2023/02/25 10:11:29;;;;;;;10.50;5.60;;;7.70;99.90;;;;;;5006078;28;20494;-92
2023/02/25 10:13:55;;;;;;;10.43;6.03;;;7.80;99.90;;;;;;5027344;28;20038;-89
2023/02/25 10:16:37;;;;;;;9.63;5.13;;;7.70;99.90;;;;;;5013742;28;20034;-88
2023/02/25 10:19:28;;;;;;;6.37;5.20;;;7.70;99.90;;;;;;4996756;28;20037;-90
2023/02/25 10:22:24;;;;;;;6.13;5.30;;;7.80;99.90;;;;;;5006255;28;20057;-87
2023/02/25 10:24:58;;;;;;;6.03;4.53;;;7.80;99.90;;;;;;4994087;28;20065;-88
2023/02/25 10:27:28;;;;;;;8.13;5.35;;;7.80;99.90;;;;;;5010287;28;20046;-89
2023/02/25 10:30:11;;;;;;;8.50;5.23;;;7.80;99.90;;;;;;5020858;28;20073;-88
2023/02/25 10:32:37;;;;;;;7.25;4.80;;;7.90;99.90;;;;;;5003479;28;20038;-84
2023/02/25 10:35:21;;;;;;;7.33;5.03;;;7.90;99.90;;;;;;5034937;28;20041;-80
2023/02/25 10:37:47;;;;;;;6.47;4.60;;;8.00;99.90;;;;;;5010790;28;20031;-80
2023/02/25 10:40:16;;;;;;;6.07;4.38;;;8.00;99.90;;;;;;5002649;28;20022;-81
2023/02/25 10:42:59;;;;;;;9.82;5.32;;;8.00;99.90;;;;;;5038346;28;20034;-81
2023/02/25 10:45:27;;;;;;;4.80;3.83;;;8.00;99.90;;;;;;5025953;28;20030;-80
2023/02/25 10:48:13;;;;;;;2.97;2.77;;;8.00;99.90;;;;;;4995711;28;20053;-89
2023/02/25 10:50:39;;;;;;;6.90;4.70;;;8.00;99.90;;;;;;5010269;28;20033;-81
2023/02/25 10:53:15;;;;;;;10.00;5.37;;;8.10;99.90;;;;;;4994102;28;20034;-82
2023/02/25 10:55:51;;;;;;;13.20;4.95;;;8.20;99.90;;;;;;4996116;28;20034;-81
2023/02/25 10:58:37;;;;;;;5.45;4.25;;;8.30;99.90;;;;;;5012998;28;20021;-79
2023/02/25 11:01:09;;;;;;;8.48;4.72;;;8.30;99.90;;;;;;5039368;28;20034;-82
2023/02/25 11:03:45;;;;;;;9.50;8.60;;;8.30;99.90;;;;;;5000865;28;20045;-80
2023/02/25 11:06:17;;;;;;;7.50;4.68;;;8.20;99.90;;;;;;5016572;28;20042;-80
2023/02/25 11:08:43;;;;;;;8.52;4.43;;;8.20;99.90;;;;;;5002485;28;20048;-81
2023/02/25 11:11:32;;;;;;;6.78;4.20;;;8.30;99.90;;;;;;5045812;28;20037;-81
2023/02/25 11:14:02;;;;;;;3.72;3.42;;;8.30;99.90;;;;;;5025152;28;20026;-80
2023/02/25 11:16:29;;;;;;;6.55;3.72;;;8.40;99.90;;;;;;5025349;28;20503;-80
2023/02/25 11:19:00;;;;;;;5.15;3.97;;;8.30;99.90;;;;;;5026226;28;20369;-81
2023/02/25 11:21:32;;;;;;;7.43;3.42;;;8.30;99.90;;;;;;5018401;28;20499;-81
2023/02/25 11:24:01;;;;;;;7.93;3.50;;;8.30;99.90;;;;;;5046048;28;20026;-81
2023/02/25 11:26:33;;;;;;;5.78;3.55;;;8.40;99.90;;;;;;5044317;28;20045;-80
2023/02/25 11:29:12;;;;;;;4.20;3.40;;;8.30;99.90;;;;;;5030353;28;20054;-80
2023/02/25 11:31:39;;;;;;;5.03;2.97;;;8.30;99.90;;;;;;5008105;28;20038;-79
2023/02/25 11:34:12;;;;;;;6.68;3.20;;;8.20;99.90;;;;;;5033101;28;20034;-80
2023/02/25 11:36:38;;;;;;;6.23;3.77;;;8.10;99.90;;;;;;5045291;28;20030;-79
2023/02/25 11:39:21;;;;;;;5.30;3.40;;;8.10;99.90;;;;;;5012036;28;20379;-79
2023/02/25 11:41:48;;;;;;;4.65;2.83;;;8.10;99.90;;;;;;5011893;28;20022;-79
2023/02/25 11:44:29;;;;;;;6.83;3.73;;;8.10;99.90;;;;;;5021323;28;20033;-79
2023/02/25 11:47:01;;;;;;;10.57;4.22;;;8.10;99.90;;;;;;5012726;28;20030;-80
2023/02/25 11:49:48;;;;;;;6.20;4.13;;;8.20;99.90;;;;;;5017341;28;20038;-79
2023/02/25 11:52:37;;;;;;;5.23;3.97;;;8.10;99.90;;;;;;5031545;28;20026;-80
2023/02/25 11:55:25;;;;;;;10.30;4.23;;;8.20;99.90;;;;;;5038221;28;20093;-79
2023/02/25 11:58:02;;;;;;;7.38;3.92;;;8.20;99.90;;;;;;5005289;28;20506;-80
2023/02/25 12:00:37;;;;;;;6.33;3.73;;;8.20;99.90;;;;;;5043491;28;20053;-79
2023/02/25 12:03:09;;;;;;;10.30;4.47;;;8.20;99.90;;;;;;5011713;28;20026;-79
2023/02/25 12:05:47;;;;;;;7.40;4.13;;;8.20;99.90;;;;;;5009858;28;20041;-79
2023/02/25 12:08:20;;;;;;;9.63;4.53;;;8.30;99.90;;;;;;5009270;28;20041;-80
2023/02/25 12:11:03;;;;;;;6.60;4.15;;;8.30;99.90;;;;;;5022572;28;20030;-80
2023/02/25 12:13:55;;;;;;;4.00;3.42;;;8.30;99.90;;;;;;5000245;28;20038;-79
2023/02/25 12:16:33;;;;;;;11.90;4.93;;;8.30;99.90;;;;;;5019289;28;20130;-80
2023/02/25 12:19:03;;;;;;;9.88;4.55;;;8.30;99.90;;;;;;5012508;28;20457;-80
2023/02/25 12:22:11;;;;;;;8.23;5.07;;;8.30;99.90;;;;;;5012454;28;20498;-79
2023/02/25 12:24:44;;;;;;;6.35;3.97;;;8.20;99.90;;;;;;4995500;28;20038;-80
2023/02/25 12:27:41;;;;;;;9.02;4.28;;;8.30;99.90;;;;;;5025353;28;20026;-81
2023/02/25 12:30:26;;;;;;;10.20;4.10;;;8.30;99.90;;;;;;5002930;28;20034;-80
2023/02/25 12:33:01;;;;;;;7.22;4.43;;;8.40;99.90;;;;;;5008103;28;20029;-79
2023/02/25 12:35:53;;;;;;;8.68;4.18;;;8.50;99.90;;;;;;5012432;28;20030;-80
2023/02/25 12:38:58;;;;;;;5.65;4.13;;;8.50;99.90;;;;;;5038055;28;20476;-79
2023/02/25 12:42:13;;;;;;;7.15;4.30;;;8.50;99.90;;;;;;4998063;28;20049;-80
2023/02/25 12:45:01;;;;;;;12.10;4.78;;;8.40;99.90;;;;;;5014278;28;20050;-80
2023/02/25 12:47:37;;;;;;;8.95;4.10;;;8.50;99.90;;;;;;5011090;28;20026;-80
2023/02/25 12:50:40;;;;;;;10.32;4.50;;;8.50;99.90;;;;;;5043056;28;20379;-80
2023/02/25 12:53:27;;;;;;;10.52;4.25;;;8.60;99.90;;;;;;5012394;28;20038;-79
2023/02/25 12:56:01;;;;;;;11.65;4.72;;;8.60;99.90;;;;;;5011411;28;20041;-80
2023/02/25 12:58:42;;;;;;;9.32;4.20;;;8.60;99.90;;;;;;5025738;28;20538;-80
2023/02/25 13:01:30;;;;;;;7.88;4.15;;;8.70;99.90;;;;;;5011154;28;20499;-80